sensor_id;sensor_type;location;lat;lon;timestamp;pressure;altitude;pressure_sealevel;temperature;humidity
57885;BME280;43703;51.060;-0.086;2023-01-15T00:01:39;98689.80;;;1.38;72.97
57885;BME280;43703;51.060;-0.086;2023-01-15T00:04:05;98680.75;;;1.43;71.98
57885;BME280;43703;51.060;-0.086;2023-01-15T00:06:30;98673.16;;;1.35;72.56
57885;BME280;43703;51.060;-0.086;2023-01-15T00:08:55;98671.08;;;0.84;73.13
57885;BME280;43703;51.060;-0.086;2023-01-15T00:11:21;98664.64;;;1.15;72.62
57885;BME280;43703;51.060;-0.086;2023-01-15T00:13:46;98666.37;;;1.11;73.43
57885;BME280;43703;51.060;-0.086;2023-01-15T00:16:12;98669.01;;;1.36;70.63
57885;BME280;43703;51.060;-0.086;2023-01-15T00:18:35;98659.10;;;1.09;71.72
57885;BME280;43703;51.060;-0.086;2023-01-15T00:21:01;98666.90;;;1.47;70.77
57885;BME280;43703;51.060;-0.086;2023-01-15T00:23:25;98661.92;;;0.98;71.70
57885;BME280;43703;51.060;-0.086;2023-01-15T00:25:55;98654.48;;;1.24;71.23
57885;BME280;43703;51.060;-0.086;2023-01-15T00:28:16;98659.94;;;1.28;71.29
57885;BME280;43703;51.060;-0.086;2023-01-15T00:30:41;98658.14;;;1.14;71.61
57885;BME280;43703;51.060;-0.086;2023-01-15T00:33:06;98651.32;;;1.58;70.54
57885;BME280;43703;51.060;-0.086;2023-01-15T00:35:31;98656.03;;;1.14;71.65
57885;BME280;43703;51.060;-0.086;2023-01-15T00:37:56;98665.53;;;1.35;71.80
57885;BME280;43703;51.060;-0.086;2023-01-15T00:40:21;98665.19;;;0.79;71.40
57885;BME280;43703;51.060;-0.086;2023-01-15T00:42:46;98663.78;;;1.78;69.15
57885;BME280;43703;51.060;-0.086;2023-01-15T00:45:11;98661.77;;;0.85;72.41
57885;BME280;43703;51.060;-0.086;2023-01-15T00:47:37;98666.83;;;1.46;71.18
57885;BME280;43703;51.060;-0.086;2023-01-15T00:50:02;98675.07;;;1.09;70.31
57885;BME280;43703;51.060;-0.086;2023-01-15T00:52:26;98672.23;;;0.99;71.67
57885;BME280;43703;51.060;-0.086;2023-01-15T00:54:51;98648.42;;;1.88;69.70
57885;BME280;43703;51.060;-0.086;2023-01-15T00:57:16;98663.21;;;1.53;71.36
57885;BME280;43703;51.060;-0.086;2023-01-15T00:59:42;98659.91;;;1.29;71.11
57885;BME280;43703;51.060;-0.086;2023-01-15T01:02:07;98651.59;;;0.80;71.59
57885;BME280;43703;51.060;-0.086;2023-01-15T01:04:32;98654.25;;;1.38;71.05
57885;BME280;43703;51.060;-0.086;2023-01-15T01:06:57;98648.68;;;1.12;71.67
57885;BME280;43703;51.060;-0.086;2023-01-15T01:09:22;98643.95;;;1.08;71.73
57885;BME280;43703;51.060;-0.086;2023-01-15T01:11:48;98641.37;;;1.11;71.57
57885;BME280;43703;51.060;-0.086;2023-01-15T01:14:13;98648.52;;;1.32;71.79
57885;BME280;43703;51.060;-0.086;2023-01-15T01:16:39;98647.00;;;1.19;72.04
57885;BME280;43703;51.060;-0.086;2023-01-15T01:19:05;98642.22;;;1.31;72.98
57885;BME280;43703;51.060;-0.086;2023-01-15T01:21:29;98642.89;;;0.95;72.88
57885;BME280;43703;51.060;-0.086;2023-01-15T01:23:53;98648.95;;;1.82;70.10
57885;BME280;43703;51.060;-0.086;2023-01-15T01:26:20;98646.79;;;0.98;72.29
57885;BME280;43703;51.060;-0.086;2023-01-15T01:28:48;98651.08;;;1.47;71.33
57885;BME280;43703;51.060;-0.086;2023-01-15T01:31:09;98652.53;;;1.56;71.26
57885;BME280;43703;51.060;-0.086;2023-01-15T01:33:33;98645.64;;;0.84;72.24
57885;BME280;43703;51.060;-0.086;2023-01-15T01:35:58;98646.73;;;1.49;72.32
57885;BME280;43703;51.060;-0.086;2023-01-15T01:38:23;98649.33;;;0.95;72.18
57885;BME280;43703;51.060;-0.086;2023-01-15T01:40:48;98648.24;;;1.33;71.08
57885;BME280;43703;51.060;-0.086;2023-01-15T01:43:19;98647.23;;;1.57;71.05
57885;BME280;43703;51.060;-0.086;2023-01-15T01:45:40;98647.18;;;1.21;71.72
57885;BME280;43703;51.060;-0.086;2023-01-15T01:48:06;98648.10;;;1.01;71.84
57885;BME280;43703;51.060;-0.086;2023-01-15T01:50:31;98650.33;;;1.27;71.23
57885;BME280;43703;51.060;-0.086;2023-01-15T01:52:58;98640.55;;;0.72;72.57
57885;BME280;43703;51.060;-0.086;2023-01-15T01:55:23;98647.53;;;1.08;72.44
57885;BME280;43703;51.060;-0.086;2023-01-15T01:57:47;98654.39;;;0.55;73.68
57885;BME280;43703;51.060;-0.086;2023-01-15T02:00:12;98666.52;;;0.68;72.84
57885;BME280;43703;51.060;-0.086;2023-01-15T02:02:36;98672.91;;;0.39;73.29
57885;BME280;43703;51.060;-0.086;2023-01-15T02:05:01;98666.69;;;0.74;73.30
57885;BME280;43703;51.060;-0.086;2023-01-15T02:07:26;98665.21;;;0.78;71.93
57885;BME280;43703;51.060;-0.086;2023-01-15T02:09:51;98663.67;;;0.49;71.52
57885;BME280;43703;51.060;-0.086;2023-01-15T02:12:23;98671.05;;;0.74;72.34
57885;BME280;43703;51.060;-0.086;2023-01-15T02:14:46;98667.98;;;0.39;74.64
57885;BME280;43703;51.060;-0.086;2023-01-15T02:17:11;98663.45;;;0.35;73.41
57885;BME280;43703;51.060;-0.086;2023-01-15T02:19:40;98663.31;;;0.77;71.74
57885;BME280;43703;51.060;-0.086;2023-01-15T02:22:03;98664.38;;;0.27;73.17
57885;BME280;43703;51.060;-0.086;2023-01-15T02:24:29;98662.00;;;0.78;70.24
57885;BME280;43703;51.060;-0.086;2023-01-15T02:26:59;98667.89;;;0.54;72.32
57885;BME280;43703;51.060;-0.086;2023-01-15T02:29:16;98671.42;;;0.17;73.23
57885;BME280;43703;51.060;-0.086;2023-01-15T02:31:39;98675.16;;;0.28;72.78
57885;BME280;43703;51.060;-0.086;2023-01-15T02:34:07;98676.52;;;0.71;71.24
57885;BME280;43703;51.060;-0.086;2023-01-15T02:36:29;98679.28;;;0.40;71.76
57885;BME280;43703;51.060;-0.086;2023-01-15T02:38:55;98682.65;;;0.19;71.70
57885;BME280;43703;51.060;-0.086;2023-01-15T02:41:20;98683.89;;;0.17;72.35
57885;BME280;43703;51.060;-0.086;2023-01-15T02:43:45;98683.26;;;0.00;73.24
57885;BME280;43703;51.060;-0.086;2023-01-15T02:46:08;98684.58;;;-0.49;74.17
57885;BME280;43703;51.060;-0.086;2023-01-15T02:48:37;98680.60;;;0.25;72.96
57885;BME280;43703;51.060;-0.086;2023-01-15T02:51:01;98676.26;;;-0.04;72.37
57885;BME280;43703;51.060;-0.086;2023-01-15T02:53:27;98683.50;;;-0.19;72.62
57885;BME280;43703;51.060;-0.086;2023-01-15T02:55:50;98689.48;;;-0.16;72.63
57885;BME280;43703;51.060;-0.086;2023-01-15T02:58:18;98693.70;;;-0.24;72.52
57885;BME280;43703;51.060;-0.086;2023-01-15T03:00:42;98693.45;;;0.20;71.36
57885;BME280;43703;51.060;-0.086;2023-01-15T03:03:08;98692.70;;;0.58;70.89
57885;BME280;43703;51.060;-0.086;2023-01-15T03:05:34;98688.78;;;0.10;71.31
57885;BME280;43703;51.060;-0.086;2023-01-15T03:07:56;98685.29;;;-0.17;70.31
57885;BME280;43703;51.060;-0.086;2023-01-15T03:10:22;98684.55;;;-0.30;71.88
57885;BME280;43703;51.060;-0.086;2023-01-15T03:12:48;98680.38;;;0.23;70.96
57885;BME280;43703;51.060;-0.086;2023-01-15T03:15:14;98678.84;;;-0.01;70.86
57885;BME280;43703;51.060;-0.086;2023-01-15T03:17:38;98678.86;;;0.04;70.65
57885;BME280;43703;51.060;-0.086;2023-01-15T03:20:06;98676.27;;;0.34;70.63
57885;BME280;43703;51.060;-0.086;2023-01-15T03:22:28;98675.49;;;-0.80;71.83
57885;BME280;43703;51.060;-0.086;2023-01-15T03:24:53;98667.76;;;0.29;69.03
57885;BME280;43703;51.060;-0.086;2023-01-15T03:27:16;98672.93;;;-0.05;70.32
57885;BME280;43703;51.060;-0.086;2023-01-15T03:29:45;98666.73;;;-0.60;70.99
57885;BME280;43703;51.060;-0.086;2023-01-15T03:32:06;98666.83;;;-0.70;72.54
57885;BME280;43703;51.060;-0.086;2023-01-15T03:34:37;98667.75;;;-0.71;72.19
57885;BME280;43703;51.060;-0.086;2023-01-15T03:36:56;98666.17;;;-0.53;73.40
57885;BME280;43703;51.060;-0.086;2023-01-15T03:39:22;98664.17;;;-0.27;72.52
57885;BME280;43703;51.060;-0.086;2023-01-15T03:41:57;98652.27;;;-0.01;70.47
57885;BME280;43703;51.060;-0.086;2023-01-15T03:44:20;98654.43;;;-0.24;73.06
57885;BME280;43703;51.060;-0.086;2023-01-15T03:46:48;98661.73;;;-0.03;70.46
57885;BME280;43703;51.060;-0.086;2023-01-15T03:49:07;98663.94;;;-0.33;70.85
57885;BME280;43703;51.060;-0.086;2023-01-15T03:51:32;98658.07;;;0.35;68.77
57885;BME280;43703;51.060;-0.086;2023-01-15T03:53:54;98671.36;;;-0.02;69.45
57885;BME280;43703;51.060;-0.086;2023-01-15T03:56:21;98665.71;;;-0.04;71.34
57885;BME280;43703;51.060;-0.086;2023-01-15T03:58:47;98675.50;;;-0.05;70.17
57885;BME280;43703;51.060;-0.086;2023-01-15T04:01:10;98669.36;;;0.51;70.11
57885;BME280;43703;51.060;-0.086;2023-01-15T04:03:33;98669.95;;;-0.38;72.40
57885;BME280;43703;51.060;-0.086;2023-01-15T04:05:59;98669.02;;;-0.68;72.80
57885;BME280;43703;51.060;-0.086;2023-01-15T04:08:23;98670.26;;;-0.42;73.59
57885;BME280;43703;51.060;-0.086;2023-01-15T04:10:52;98683.86;;;-0.45;73.91
57885;BME280;43703;51.060;-0.086;2023-01-15T04:13:12;98680.78;;;-0.05;72.92
57885;BME280;43703;51.060;-0.086;2023-01-15T04:15:37;98677.20;;;-0.30;72.70
57885;BME280;43703;51.060;-0.086;2023-01-15T04:18:03;98673.60;;;-0.83;72.99
57885;BME280;43703;51.060;-0.086;2023-01-15T04:20:28;98657.82;;;-0.50;72.47
57885;BME280;43703;51.060;-0.086;2023-01-15T04:22:53;98655.39;;;0.03;72.09
57885;BME280;43703;51.060;-0.086;2023-01-15T04:25:18;98658.97;;;0.06;70.31
57885;BME280;43703;51.060;-0.086;2023-01-15T04:27:43;98652.24;;;-0.32;73.13
57885;BME280;43703;51.060;-0.086;2023-01-15T04:30:09;98650.15;;;-0.03;70.94
57885;BME280;43703;51.060;-0.086;2023-01-15T04:32:33;98646.81;;;-0.63;73.43
57885;BME280;43703;51.060;-0.086;2023-01-15T04:34:58;98641.81;;;-0.20;72.01
57885;BME280;43703;51.060;-0.086;2023-01-15T04:37:25;98644.61;;;0.20;70.61
57885;BME280;43703;51.060;-0.086;2023-01-15T04:39:49;98645.09;;;0.45;69.48
57885;BME280;43703;51.060;-0.086;2023-01-15T04:42:14;98644.91;;;0.22;69.36
57885;BME280;43703;51.060;-0.086;2023-01-15T04:44:39;98651.01;;;-0.27;71.43
57885;BME280;43703;51.060;-0.086;2023-01-15T04:47:04;98635.91;;;0.04;70.47
57885;BME280;43703;51.060;-0.086;2023-01-15T04:49:29;98641.60;;;0.03;70.15
57885;BME280;43703;51.060;-0.086;2023-01-15T04:51:54;98625.46;;;0.12;69.85
57885;BME280;43703;51.060;-0.086;2023-01-15T04:54:19;98626.58;;;-0.44;70.97
57885;BME280;43703;51.060;-0.086;2023-01-15T04:56:46;98633.59;;;0.24;68.93
57885;BME280;43703;51.060;-0.086;2023-01-15T04:59:10;98641.12;;;-0.04;71.90
57885;BME280;43703;51.060;-0.086;2023-01-15T05:01:36;98642.64;;;0.75;68.49
57885;BME280;43703;51.060;-0.086;2023-01-15T05:04:00;98651.95;;;0.36;70.72
57885;BME280;43703;51.060;-0.086;2023-01-15T05:06:25;98641.26;;;-0.26;70.53
57885;BME280;43703;51.060;-0.086;2023-01-15T05:08:50;98642.42;;;0.04;70.86
57885;BME280;43703;51.060;-0.086;2023-01-15T05:11:15;98638.52;;;0.48;70.11
57885;BME280;43703;51.060;-0.086;2023-01-15T05:13:40;98632.46;;;-0.53;72.64
57885;BME280;43703;51.060;-0.086;2023-01-15T05:16:09;98627.84;;;0.35;70.68
57885;BME280;43703;51.060;-0.086;2023-01-15T05:18:30;98621.58;;;0.10;70.25
57885;BME280;43703;51.060;-0.086;2023-01-15T05:20:55;98620.08;;;-0.30;71.73
57885;BME280;43703;51.060;-0.086;2023-01-15T05:23:20;98615.02;;;-0.23;72.01
57885;BME280;43703;51.060;-0.086;2023-01-15T05:25:45;98614.44;;;0.17;71.45
57885;BME280;43703;51.060;-0.086;2023-01-15T05:28:11;98631.86;;;-0.48;73.03
57885;BME280;43703;51.060;-0.086;2023-01-15T05:30:36;98623.69;;;-0.71;73.03
57885;BME280;43703;51.060;-0.086;2023-01-15T05:33:01;98631.42;;;-0.39;73.40
57885;BME280;43703;51.060;-0.086;2023-01-15T05:35:27;98633.41;;;0.23;71.65
57885;BME280;43703;51.060;-0.086;2023-01-15T05:37:52;98636.19;;;0.34;71.11
57885;BME280;43703;51.060;-0.086;2023-01-15T05:40:17;98640.06;;;0.45;70.98
57885;BME280;43703;51.060;-0.086;2023-01-15T05:42:42;98638.93;;;0.27;71.18
57885;BME280;43703;51.060;-0.086;2023-01-15T05:45:08;98640.01;;;-0.21;71.43
57885;BME280;43703;51.060;-0.086;2023-01-15T05:47:32;98636.23;;;-0.43;73.17
57885;BME280;43703;51.060;-0.086;2023-01-15T05:49:57;98642.03;;;-0.03;73.04
57885;BME280;43703;51.060;-0.086;2023-01-15T05:52:22;98632.61;;;0.39;71.43
57885;BME280;43703;51.060;-0.086;2023-01-15T05:54:48;98639.07;;;0.25;71.90
57885;BME280;43703;51.060;-0.086;2023-01-15T05:57:13;98624.45;;;-0.26;71.80
57885;BME280;43703;51.060;-0.086;2023-01-15T05:59:39;98619.25;;;-0.16;72.74
57885;BME280;43703;51.060;-0.086;2023-01-15T06:02:03;98616.70;;;0.07;70.87
57885;BME280;43703;51.060;-0.086;2023-01-15T06:04:28;98599.53;;;-0.18;71.95
57885;BME280;43703;51.060;-0.086;2023-01-15T06:06:54;98592.73;;;-0.13;72.43
57885;BME280;43703;51.060;-0.086;2023-01-15T06:09:19;98579.91;;;-0.19;71.26
57885;BME280;43703;51.060;-0.086;2023-01-15T06:11:44;98573.53;;;0.07;71.38
57885;BME280;43703;51.060;-0.086;2023-01-15T06:14:09;98584.51;;;0.25;70.88
57885;BME280;43703;51.060;-0.086;2023-01-15T06:16:34;98578.52;;;0.62;68.72
57885;BME280;43703;51.060;-0.086;2023-01-15T06:19:00;98578.84;;;0.11;70.85
57885;BME280;43703;51.060;-0.086;2023-01-15T06:21:24;98574.02;;;0.28;70.59
57885;BME280;43703;51.060;-0.086;2023-01-15T06:23:52;98572.68;;;0.07;70.26
57885;BME280;43703;51.060;-0.086;2023-01-15T06:26:16;98567.64;;;0.78;69.73
57885;BME280;43703;51.060;-0.086;2023-01-15T06:28:40;98556.00;;;1.11;68.13
57885;BME280;43703;51.060;-0.086;2023-01-15T06:31:05;98565.36;;;0.19;70.93
57885;BME280;43703;51.060;-0.086;2023-01-15T06:33:29;98569.51;;;0.13;70.61
57885;BME280;43703;51.060;-0.086;2023-01-15T06:35:55;98559.28;;;0.09;71.21
57885;BME280;43703;51.060;-0.086;2023-01-15T06:38:20;98551.97;;;-0.03;71.44
57885;BME280;43703;51.060;-0.086;2023-01-15T06:40:45;98563.65;;;0.52;69.25
57885;BME280;43703;51.060;-0.086;2023-01-15T06:43:11;98567.23;;;0.32;70.30
57885;BME280;43703;51.060;-0.086;2023-01-15T06:45:41;98567.98;;;-0.08;72.18
57885;BME280;43703;51.060;-0.086;2023-01-15T06:48:01;98571.44;;;-0.22;72.07
57885;BME280;43703;51.060;-0.086;2023-01-15T06:50:26;98577.82;;;0.55;70.55
57885;BME280;43703;51.060;-0.086;2023-01-15T06:52:51;98569.40;;;0.59;70.32
57885;BME280;43703;51.060;-0.086;2023-01-15T06:55:16;98571.14;;;0.16;71.64
57885;BME280;43703;51.060;-0.086;2023-01-15T06:57:41;98564.97;;;0.14;71.38
57885;BME280;43703;51.060;-0.086;2023-01-15T07:00:07;98571.50;;;0.01;72.98
57885;BME280;43703;51.060;-0.086;2023-01-15T07:02:31;98578.13;;;0.22;72.60
57885;BME280;43703;51.060;-0.086;2023-01-15T07:04:56;98584.11;;;0.40;71.53
57885;BME280;43703;51.060;-0.086;2023-01-15T07:07:21;98595.66;;;0.21;71.39
57885;BME280;43703;51.060;-0.086;2023-01-15T07:09:47;98600.17;;;0.69;70.83
57885;BME280;43703;51.060;-0.086;2023-01-15T07:12:12;98596.21;;;0.54;70.98
57885;BME280;43703;51.060;-0.086;2023-01-15T07:14:37;98599.28;;;0.08;72.26
57885;BME280;43703;51.060;-0.086;2023-01-15T07:17:02;98607.69;;;0.73;70.72
57885;BME280;43703;51.060;-0.086;2023-01-15T07:19:27;98604.67;;;0.45;70.72
57885;BME280;43703;51.060;-0.086;2023-01-15T07:21:52;98599.83;;;0.44;70.07
57885;BME280;43703;51.060;-0.086;2023-01-15T07:24:18;98598.59;;;0.72;69.58
57885;BME280;43703;51.060;-0.086;2023-01-15T07:26:43;98602.52;;;0.31;70.29
57885;BME280;43703;51.060;-0.086;2023-01-15T07:29:08;98609.80;;;0.14;71.91
57885;BME280;43703;51.060;-0.086;2023-01-15T07:31:33;98597.32;;;0.86;70.34
57885;BME280;43703;51.060;-0.086;2023-01-15T07:33:58;98585.94;;;0.41;70.38
57885;BME280;43703;51.060;-0.086;2023-01-15T07:36:23;98582.09;;;0.58;69.76
57885;BME280;43703;51.060;-0.086;2023-01-15T07:38:48;98576.54;;;0.38;70.55
57885;BME280;43703;51.060;-0.086;2023-01-15T07:41:13;98569.91;;;0.46;70.94
57885;BME280;43703;51.060;-0.086;2023-01-15T07:43:38;98565.54;;;-0.05;72.77
57885;BME280;43703;51.060;-0.086;2023-01-15T07:46:03;98565.14;;;0.55;71.78
57885;BME280;43703;51.060;-0.086;2023-01-15T07:48:29;98562.99;;;0.88;70.87
57885;BME280;43703;51.060;-0.086;2023-01-15T07:50:53;98562.86;;;0.86;71.44
57885;BME280;43703;51.060;-0.086;2023-01-15T07:53:18;98562.48;;;0.63;71.32
57885;BME280;43703;51.060;-0.086;2023-01-15T07:55:44;98579.47;;;1.37;69.96
57885;BME280;43703;51.060;-0.086;2023-01-15T07:58:09;98575.22;;;0.73;71.24
57885;BME280;43703;51.060;-0.086;2023-01-15T08:00:34;98580.73;;;0.55;72.44
57885;BME280;43703;51.060;-0.086;2023-01-15T08:02:59;98579.83;;;0.40;72.66
57885;BME280;43703;51.060;-0.086;2023-01-15T08:05:24;98582.75;;;0.42;73.09
57885;BME280;43703;51.060;-0.086;2023-01-15T08:07:49;98582.46;;;0.83;71.89
57885;BME280;43703;51.060;-0.086;2023-01-15T08:10:15;98581.68;;;0.37;73.02
57885;BME280;43703;51.060;-0.086;2023-01-15T08:12:40;98581.19;;;0.68;72.63
57885;BME280;43703;51.060;-0.086;2023-01-15T08:15:07;98574.07;;;0.54;73.02
57885;BME280;43703;51.060;-0.086;2023-01-15T08:17:31;98577.76;;;0.59;73.30
57885;BME280;43703;51.060;-0.086;2023-01-15T08:19:55;98571.91;;;1.17;70.04
57885;BME280;43703;51.060;-0.086;2023-01-15T08:22:20;98579.18;;;1.06;70.70
57885;BME280;43703;51.060;-0.086;2023-01-15T08:24:45;98582.28;;;0.55;72.03
57885;BME280;43703;51.060;-0.086;2023-01-15T08:27:11;98581.54;;;0.66;73.73
57885;BME280;43703;51.060;-0.086;2023-01-15T08:29:36;98586.98;;;0.85;72.60
57885;BME280;43703;51.060;-0.086;2023-01-15T08:32:01;98589.25;;;1.09;71.45
57885;BME280;43703;51.060;-0.086;2023-01-15T08:34:26;98597.57;;;0.85;71.94
57885;BME280;43703;51.060;-0.086;2023-01-15T08:36:51;98592.22;;;1.00;71.45
57885;BME280;43703;51.060;-0.086;2023-01-15T08:39:16;98597.04;;;1.19;72.68
57885;BME280;43703;51.060;-0.086;2023-01-15T08:41:42;98602.46;;;0.87;72.97
57885;BME280;43703;51.060;-0.086;2023-01-15T08:44:08;98605.90;;;1.08;71.57
57885;BME280;43703;51.060;-0.086;2023-01-15T08:46:32;98608.82;;;1.17;71.21
57885;BME280;43703;51.060;-0.086;2023-01-15T08:48:57;98603.72;;;0.86;72.30
57885;BME280;43703;51.060;-0.086;2023-01-15T08:51:23;98607.06;;;1.64;69.66
57885;BME280;43703;51.060;-0.086;2023-01-15T08:53:48;98610.25;;;1.52;71.21
57885;BME280;43703;51.060;-0.086;2023-01-15T08:56:14;98605.30;;;1.47;70.74
57885;BME280;43703;51.060;-0.086;2023-01-15T08:58:38;98609.09;;;1.54;70.07
57885;BME280;43703;51.060;-0.086;2023-01-15T09:01:04;98616.01;;;1.05;71.98
57885;BME280;43703;51.060;-0.086;2023-01-15T09:03:28;98612.59;;;1.20;73.20
57885;BME280;43703;51.060;-0.086;2023-01-15T09:05:53;98610.71;;;1.55;70.25
57885;BME280;43703;51.060;-0.086;2023-01-15T09:08:18;98608.81;;;1.42;71.31
57885;BME280;43703;51.060;-0.086;2023-01-15T09:10:44;98611.63;;;1.91;70.70
57885;BME280;43703;51.060;-0.086;2023-01-15T09:13:09;98609.80;;;2.06;69.66
57885;BME280;43703;51.060;-0.086;2023-01-15T09:15:34;98614.69;;;1.81;70.50
57885;BME280;43703;51.060;-0.086;2023-01-15T09:18:00;98620.66;;;1.70;71.17
57885;BME280;43703;51.060;-0.086;2023-01-15T09:20:25;98619.18;;;2.48;68.75
57885;BME280;43703;51.060;-0.086;2023-01-15T09:22:51;98619.18;;;2.37;69.26
57885;BME280;43703;51.060;-0.086;2023-01-15T09:25:16;98627.56;;;2.50;67.28
57885;BME280;43703;51.060;-0.086;2023-01-15T09:27:41;98627.64;;;3.43;65.74
57885;BME280;43703;51.060;-0.086;2023-01-15T09:30:20;98631.32;;;3.28;65.25
57885;BME280;43703;51.060;-0.086;2023-01-15T09:32:31;98625.49;;;4.13;64.26
57885;BME280;43703;51.060;-0.086;2023-01-15T09:34:56;98626.31;;;4.22;62.66
57885;BME280;43703;51.060;-0.086;2023-01-15T09:37:22;98619.38;;;4.32;62.87
57885;BME280;43703;51.060;-0.086;2023-01-15T09:39:46;98617.91;;;4.65;62.40
57885;BME280;43703;51.060;-0.086;2023-01-15T09:42:23;98613.73;;;4.44;61.43
57885;BME280;43703;51.060;-0.086;2023-01-15T09:44:50;98628.18;;;4.14;62.85
57885;BME280;43703;51.060;-0.086;2023-01-15T09:47:07;98625.65;;;5.10;61.17
57885;BME280;43703;51.060;-0.086;2023-01-15T09:49:36;98640.79;;;4.74;62.40
57885;BME280;43703;51.060;-0.086;2023-01-15T09:51:57;98636.84;;;4.29;62.04
57885;BME280;43703;51.060;-0.086;2023-01-15T09:54:26;98640.15;;;4.06;61.97
57885;BME280;43703;51.060;-0.086;2023-01-15T09:56:42;98642.73;;;3.54;63.57
57885;BME280;43703;51.060;-0.086;2023-01-15T09:59:17;98641.20;;;2.93;66.01
57885;BME280;43703;51.060;-0.086;2023-01-15T10:01:32;98651.51;;;3.37;63.94
57885;BME280;43703;51.060;-0.086;2023-01-15T10:04:01;98648.03;;;3.71;64.97
57885;BME280;43703;51.060;-0.086;2023-01-15T10:06:24;98656.15;;;4.05;63.04
57885;BME280;43703;51.060;-0.086;2023-01-15T10:08:49;98655.04;;;3.32;66.26
57885;BME280;43703;51.060;-0.086;2023-01-15T10:11:21;98656.29;;;3.34;65.92
57885;BME280;43703;51.060;-0.086;2023-01-15T10:13:42;98663.75;;;3.13;64.89
57885;BME280;43703;51.060;-0.086;2023-01-15T10:16:03;98659.72;;;3.93;65.50
57885;BME280;43703;51.060;-0.086;2023-01-15T10:18:28;98667.26;;;3.33;66.18
57885;BME280;43703;51.060;-0.086;2023-01-15T10:21:06;98668.66;;;3.24;66.88
57885;BME280;43703;51.060;-0.086;2023-01-15T10:23:31;98670.86;;;3.79;65.58
57885;BME280;43703;51.060;-0.086;2023-01-15T10:25:47;98684.43;;;3.87;65.13
57885;BME280;43703;51.060;-0.086;2023-01-15T10:28:18;98684.17;;;3.80;64.73
57885;BME280;43703;51.060;-0.086;2023-01-15T10:30:38;98685.71;;;3.61;65.91
57885;BME280;43703;51.060;-0.086;2023-01-15T10:33:04;98684.43;;;3.41;66.03
57885;BME280;43703;51.060;-0.086;2023-01-15T10:35:30;98682.68;;;3.34;65.45
57885;BME280;43703;51.060;-0.086;2023-01-15T10:37:53;98697.12;;;3.34;66.53
57885;BME280;43703;51.060;-0.086;2023-01-15T10:40:30;98699.96;;;3.12;67.71
57885;BME280;43703;51.060;-0.086;2023-01-15T10:42:47;98697.86;;;3.42;66.87
57885;BME280;43703;51.060;-0.086;2023-01-15T10:45:11;98698.50;;;2.64;68.35
57885;BME280;43703;51.060;-0.086;2023-01-15T10:47:33;98697.74;;;3.53;65.35
57885;BME280;43703;51.060;-0.086;2023-01-15T10:49:56;98706.22;;;3.38;65.52
57885;BME280;43703;51.060;-0.086;2023-01-15T10:52:24;98709.35;;;3.08;66.83
57885;BME280;43703;51.060;-0.086;2023-01-15T10:54:47;98713.86;;;3.25;67.58
57885;BME280;43703;51.060;-0.086;2023-01-15T10:57:14;98706.21;;;3.86;65.17
57885;BME280;43703;51.060;-0.086;2023-01-15T10:59:39;98708.16;;;2.86;67.19
57885;BME280;43703;51.060;-0.086;2023-01-15T11:02:02;98704.63;;;4.56;64.14
57885;BME280;43703;51.060;-0.086;2023-01-15T11:04:30;98702.35;;;4.03;65.79
57885;BME280;43703;51.060;-0.086;2023-01-15T11:06:51;98705.80;;;4.08;64.29
57885;BME280;43703;51.060;-0.086;2023-01-15T11:09:19;98698.65;;;4.31;62.73
57885;BME280;43703;51.060;-0.086;2023-01-15T11:11:44;98693.72;;;4.22;63.65
57885;BME280;43703;51.060;-0.086;2023-01-15T11:14:11;98695.25;;;4.52;62.23
57885;BME280;43703;51.060;-0.086;2023-01-15T11:16:31;98691.02;;;4.21;64.40
57885;BME280;43703;51.060;-0.086;2023-01-15T11:19:01;98684.43;;;4.41;63.38
57885;BME280;43703;51.060;-0.086;2023-01-15T11:21:23;98688.30;;;4.69;62.17
57885;BME280;43703;51.060;-0.086;2023-01-15T11:23:48;98681.56;;;3.95;62.17
57885;BME280;43703;51.060;-0.086;2023-01-15T11:26:18;98695.67;;;3.95;63.92
57885;BME280;43703;51.060;-0.086;2023-01-15T11:28:40;98684.22;;;4.80;60.24
57885;BME280;43703;51.060;-0.086;2023-01-15T11:31:05;98679.22;;;3.70;63.85
57885;BME280;43703;51.060;-0.086;2023-01-15T11:33:29;98685.55;;;4.13;62.85
57885;BME280;43703;51.060;-0.086;2023-01-15T11:35:56;98686.95;;;3.72;64.90
57885;BME280;43703;51.060;-0.086;2023-01-15T11:38:19;98681.00;;;3.40;64.32
57885;BME280;43703;51.060;-0.086;2023-01-15T11:40:50;98672.48;;;3.45;65.09
57885;BME280;43703;51.060;-0.086;2023-01-15T11:43:17;98677.76;;;3.94;62.39
57885;BME280;43703;51.060;-0.086;2023-01-15T11:48:00;98676.39;;;4.32;62.93
57885;BME280;43703;51.060;-0.086;2023-01-15T11:50:25;98668.16;;;4.39;61.87
57885;BME280;43703;51.060;-0.086;2023-01-15T11:52:52;98663.14;;;4.20;61.17
57885;BME280;43703;51.060;-0.086;2023-01-15T11:55:18;98653.55;;;4.76;59.93
57885;BME280;43703;51.060;-0.086;2023-01-15T11:57:40;98654.33;;;4.59;60.32
57885;BME280;43703;51.060;-0.086;2023-01-15T12:00:06;98649.47;;;4.73;60.26
57885;BME280;43703;51.060;-0.086;2023-01-15T12:02:33;98647.49;;;4.93;61.72
57885;BME280;43703;51.060;-0.086;2023-01-15T12:04:57;98639.51;;;5.41;58.20
57885;BME280;43703;51.060;-0.086;2023-01-15T12:07:20;98629.66;;;4.83;61.87
57885;BME280;43703;51.060;-0.086;2023-01-15T12:09:59;98626.77;;;4.98;58.76
57885;BME280;43703;51.060;-0.086;2023-01-15T12:12:19;98616.15;;;4.06;60.66
57885;BME280;43703;51.060;-0.086;2023-01-15T12:14:44;98624.88;;;4.79;60.47
57885;BME280;43703;51.060;-0.086;2023-01-15T12:17:08;98622.79;;;5.39;58.77
57885;BME280;43703;51.060;-0.086;2023-01-15T12:19:28;98613.39;;;6.63;55.88
57885;BME280;43703;51.060;-0.086;2023-01-15T12:21:58;98603.12;;;5.85;55.71
57885;BME280;43703;51.060;-0.086;2023-01-15T12:24:28;98608.12;;;6.21;55.69
57885;BME280;43703;51.060;-0.086;2023-01-15T12:26:48;98608.08;;;6.03;56.06
57885;BME280;43703;51.060;-0.086;2023-01-15T12:29:12;98605.93;;;5.77;56.58
57885;BME280;43703;51.060;-0.086;2023-01-15T12:31:36;98600.85;;;6.07;53.46
57885;BME280;43703;51.060;-0.086;2023-01-15T12:34:01;98593.39;;;7.08;51.83
57885;BME280;43703;51.060;-0.086;2023-01-15T12:36:26;98593.23;;;7.37;51.36
57885;BME280;43703;51.060;-0.086;2023-01-15T12:38:51;98587.84;;;5.95;50.32
57885;BME280;43703;51.060;-0.086;2023-01-15T12:41:15;98586.92;;;6.72;49.52
57885;BME280;43703;51.060;-0.086;2023-01-15T12:43:40;98580.57;;;6.54;50.38
57885;BME280;43703;51.060;-0.086;2023-01-15T12:46:09;98573.23;;;7.42;49.23
57885;BME280;43703;51.060;-0.086;2023-01-15T12:48:38;98570.04;;;7.84;49.26